map of FEW home
FEW - Heliport
Location
City:  Cheyenne, Wyoming, United States
Name:Francis E Warren AFB Heliport
ICAO:KFEW
IATA:FEW
FAA LID:FEW

Details
Type:Heliport
Use:Military
Latitude:4108'00"N (41.133315)
Longitude:10452'02"W (-104.867191)
Datum:WGS 1984
Elevation:6160 ft (1878 m)
Variation:8.20E (WMM2015v2 magnetic declination)
-0.09 annual change
Helipads:2
Largest:65 × 65 ft (20 × 20 m), paved

Time
Time Zone:UTC-7 (DST-6)
Local Time:

Weather
METAR:KFEW 041358Z AUTO 27019KT 10SM CLR 02/M08 A2970 RMK AO2 SLP062 T00241077 $

Related Locations
Nearby:
Farthest:RRG: 10805 mi / 17389 km
Plaine Corail [Sir Gatan Duval Airport (Plaine Corail Airport)], Rodrigues Island, MU

Find:

   beyond  
but within

Other Information
Maps:
NOTAMs:
Links:
Sources:

  
  • flag of United States
  • flag of Wyoming
  

Sectional Chart

Flight Planning
at skyvector.com

Satellite Image

Google Maps Satellite view

 

Copyright © 2004-2019 Karl L. Swartz. All rights reserved.
The Great Circle Mapper name and logo are trademarks of the Great Circle Mapper.
All other trademarks mentioned herein belong to their respective owners.
Please see credits for attibutions and further copyright information.

  Follow gcmap on Facebook Follow gcmap on Twitter GCmap on LinkedIn

hCard Microformat

Geo Microformat